Time;durP1;ratioP1;P1;durP2;ratioP2;P2;SDS_P1;SDS_P2;PMS_P1;PMS_P2;Temp;Humidity;BMP_temperature;BMP_pressure;BME280_temperature;BME280_humidity;BME280_pressure;Samples;Min_cycle;Max_cycle;Signal;HPM_P1;HPM_P2
2022/08/02 00:01:15;;;;;;;;;;;;;;;;;;6195445;22;20294;-92
2022/08/02 00:03:49;;;;;;;;;;;;;;;;;;6202514;23;20006;-91
2022/08/02 00:06:24;;;;;;;;;;;;;;;;;;6148681;23;20306;-92
2022/08/02 00:09:01;;;;;;;;;;;;;;;;;;6149354;23;19915;-91
2022/08/02 00:11:38;;;;;;;;;;;;;;;;;;6148103;23;19912;-92
2022/08/02 00:14:10;;;;;;;;;;;;;;;;;;6144390;23;19922;-92
2022/08/02 00:16:42;;;;;;;;;;;;;;;;;;6147754;23;19920;-92
2022/08/02 00:19:14;;;;;;;;;;;;;;;;;;6141010;23;20012;-92
2022/08/02 00:22:11;;;;;;;;;;;;;;;;;;6171492;23;20320;-92
2022/08/02 00:24:30;;;;;;;;;;;;;;;;;;6165253;23;19922;-92
2022/08/02 00:26:56;;;;;;;;;;;;;;;;;;6144733;23;19995;-92
2022/08/02 00:29:50;;;;;;;;;;;;;;;;;;6148360;23;20397;-91
2022/08/02 00:32:30;;;;;;;;;;;;;;;;;;;;;
2022/08/02 00:35:05;;;;;;;;;;;;;;;;;;6203034;22;19919;-92
2022/08/02 00:40:31;;;;;;;;;;;;;;;;;;6230955;22;19922;-92
2022/08/02 00:42:57;;;;;;;;;;;;;;;;;;6203296;22;19915;-92
2022/08/02 00:45:32;;;;;;;;;;;;;;;;;;6206744;22;20336;-92
2022/08/02 00:48:03;;;;;;;;;;;;;;;;;;6204246;22;19919;-91
2022/08/02 00:50:41;;;;;;;;;;;;;;;;;;6244722;22;19925;-92
2022/08/02 00:59:00;;;;;;;;;;;;;;;;;;6257132;22;20342;-92
2022/08/02 01:04:30;;;;;;;;;;;;;;;;;;6211455;22;19922;-92
2022/08/02 01:07:31;;;;;;;;;;;;;;;;;;6283458;22;19921;-92
2022/08/02 01:10:03;;;;;;;;;;;;;;;;;;6286199;22;20011;-92
2022/08/02 01:12:47;;;;;;;;;;;;;;;;;;6264271;22;19926;-91
2022/08/02 01:15:28;;;;;;;;;;;;;;;;;;6236750;22;19918;-91
2022/08/02 01:17:57;;;;;;;;;;;;;;;;;;6260243;22;20715;-92
2022/08/02 01:20:49;;;;;;;;;;;;;;;;;;6238674;22;19915;-92
2022/08/02 01:29:36;;;;;;;;;;;;;;;;;;6246061;22;19914;-91
2022/08/02 01:32:22;;;;;;;;;;;;;;;;;;;;;
2022/08/02 01:35:07;;;;;;;;;;;;;;;;;;6286867;22;20348;-91
2022/08/02 01:43:32;;;;;;;;;;;;;;;;;;;;;
2022/08/02 01:46:31;;;;;;;;;;;;;;;;;;6235293;23;19922;-92
2022/08/02 01:49:27;;;;;;;;;;;;;;;;;;6203678;23;19962;-92
2022/08/02 01:58:13;;;;;;;;;;;;;;;;;;;;;
2022/08/02 02:04:08;;;;;;;;;;;;;;;;;;;;;
2022/08/02 02:09:54;;;;;;;;;;;;;;;;;;;;;
2022/08/02 02:15:23;;;;;;;;;;;;;;;;;;6300427;22;20425;-92
2022/08/02 02:20:47;;;;;;;;;;;;;;;;;;6246852;22;19985;-92
2022/08/02 02:23:19;;;;;;;;;;;;;;;;;;6169610;23;19922;-91
2022/08/02 02:28:39;;;;;;;;;;;;;;;;;;6134092;23;19916;-92
2022/08/02 02:31:14;;;;;;;;;;;;;;;;;;6140030;23;20377;-92
2022/08/02 02:33:43;;;;;;;;;;;;;;;;;;6115892;23;19954;-92
2022/08/02 02:39:17;;;;;;;;;;;;;;;;;;;;;
2022/08/02 02:42:07;;;;;;;;;;;;;;;;;;6163452;23;19981;-92
2022/08/02 02:48:00;;;;;;;;;;;;;;;;;;6124381;23;19915;-91
2022/08/02 02:50:34;;;;;;;;;;;;;;;;;;6139442;23;19923;-90
2022/08/02 02:53:15;;;;;;;;;;;;;;;;;;6110489;23;19916;-92
2022/08/02 02:56:06;;;;;;;;;;;;;;;;;;;;;
2022/08/02 02:59:01;;;;;;;;;;;;;;;;;;;;;
2022/08/02 03:04:35;;;;;;;;;;;;;;;;;;6185535;23;20001;-92
2022/08/02 03:19:00;;;;;;;;;;;;;;;;;;;;;
2022/08/02 03:24:41;;;;;;;;;;;;;;;;;;6159861;23;19915;-92
2022/08/02 03:30:39;;;;;;;;;;;;;;;;;;6291264;22;19950;-92
2022/08/02 03:33:23;;;;;;;;;;;;;;;;;;6258062;22;19930;-92
2022/08/02 03:35:53;;;;;;;;;;;;;;;;;;6262703;22;19985;-92
2022/08/02 03:38:39;;;;;;;;;;;;;;;;;;6211054;22;19922;-91
2022/08/02 03:41:08;;;;;;;;;;;;;;;;;;6263066;22;20232;-91
2022/08/02 03:49:56;;;;;;;;;;;;;;;;;;6262959;22;19914;-91
2022/08/02 03:58:49;;;;;;;;;;;;;;;;;;6298514;22;19934;-91
2022/08/02 04:01:40;;;;;;;;;;;;;;;;;;6266584;22;20359;-92
2022/08/02 04:04:14;;;;;;;;;;;;;;;;;;6291633;22;19914;-93
2022/08/02 04:07:42;;;;;;;;;;;;;;;;;;;;;
2022/08/02 04:10:00;;;;;;;;;;;;;;;;;;6247868;22;19915;-92
2022/08/02 04:15:28;;;;;;;;;;;;;;;;;;6247712;22;20041;-92
2022/08/02 04:18:12;;;;;;;;;;;;;;;;;;6237900;22;19914;-92
2022/08/02 04:27:37;;;;;;;;;;;;;;;;;;6048068;23;19940;-93
2022/08/02 04:36:14;;;;;;;;;;;;;;;;;;6052905;23;19916;-92
2022/08/02 04:38:49;;;;;;;;;;;;;;;;;;6055717;23;20070;-92
2022/08/02 04:41:34;;;;;;;;;;;;;;;;;;;;;
2022/08/02 04:44:19;;;;;;;;;;;;;;;;;;;;;
2022/08/02 04:47:01;;;;;;;;;;;;;;;;;;6083206;23;20031;-91
2022/08/02 04:58:07;;;;;;;;;;;;;;;;;;6251045;22;19981;-92
2022/08/02 05:00:51;;;;;;;;;;;;;;;;;;6301576;22;19954;-92
2022/08/02 05:03:25;;;;;;;;;;;;;;;;;;6262732;22;19915;-91
2022/08/02 05:11:29;;;;;;;;;;;;;;;;;;6168886;23;20246;-92
2022/08/02 05:17:12;;;;;;;;;;;;;;;;;;6293981;22;20319;-91
2022/08/02 05:31:20;;;;;;;;;;;;;;;;;;6158278;23;19916;-91
2022/08/02 05:34:00;;;;;;;;;;;;;;;;;;6228516;22;19914;-91
2022/08/02 05:36:43;;;;;;;;;;;;;;;;;;6277059;22;19941;-91
2022/08/02 05:39:12;;;;;;;;;;;;;;;;;;6263206;22;20244;-91
2022/08/02 05:41:44;;;;;;;;;;;;;;;;;;6238327;22;19914;-92
2022/08/02 05:45:00;;;;;;;;;;;;;;;;;;6239281;22;19919;-91
2022/08/02 05:47:28;;;;;;;;;;;;;;;;;;;;;
2022/08/02 05:50:27;;;;;;;;;;;;;;;;;;6299534;22;19922;-92
2022/08/02 05:56:10;;;;;;;;;;;;;;;;;;;;;
2022/08/02 06:01:59;;;;;;;;;;;;;;;;;;;;;
2022/08/02 06:04:31;;;;;;;;;;;;;;;;;;6293847;22;19946;-90
2022/08/02 06:07:06;;;;;;;;;;;;;;;;;;6264980;22;19961;-91
2022/08/02 06:09:38;;;;;;;;;;;;;;;;;;6267292;22;19922;-90
2022/08/02 06:12:22;;;;;;;;;;;;;;;;;;6263450;22;20229;-92
2022/08/02 06:15:01;;;;;;;;;;;;;;;;;;;;;
2022/08/02 06:17:35;;;;;;;;;;;;;;;;;;6290589;22;19924;-92
2022/08/02 06:20:13;;;;;;;;;;;;;;;;;;6235887;22;19914;-91
2022/08/02 06:22:52;;;;;;;;;;;;;;;;;;;;;
2022/08/02 06:25:52;;;;;;;;;;;;;;;;;;6288571;22;19919;-91
2022/08/02 06:28:28;;;;;;;;;;;;;;;;;;6234492;22;19950;-90
2022/08/02 06:31:13;;;;;;;;;;;;;;;;;;;;;
2022/08/02 06:33:50;;;;;;;;;;;;;;;;;;6290324;22;19965;-90
2022/08/02 06:36:26;;;;;;;;;;;;;;;;;;;;;
2022/08/02 06:39:04;;;;;;;;;;;;;;;;;;6287920;22;19968;-90
2022/08/02 06:44:37;;;;;;;;;;;;;;;;;;6258928;22;19976;-91
2022/08/02 06:47:03;;;;;;;;;;;;;;;;;;6259174;22;19915;-91
2022/08/02 06:52:27;;;;;;;;;;;;;;;;;;6269440;22;19919;-91
2022/08/02 06:54:59;;;;;;;;;;;;;;;;;;6285298;22;19990;-91
2022/08/02 06:57:25;;;;;;;;;;;;;;;;;;6235232;22;19918;-91
2022/08/02 07:03:25;;;;;;;;;;;;;;;;;;6173275;23;20337;-90
2022/08/02 07:05:54;;;;;;;;;;;;;;;;;;6216221;22;19926;-91
2022/08/02 07:11:18;;;;;;;;;;;;;;;;;;6288141;22;20427;-90
2022/08/02 07:19:29;;;;;;;;;;;;;;;;;;6264859;22;19914;-90
2022/08/02 07:22:06;;;;;;;;;;;;;;;;;;6284733;22;19958;-90
2022/08/02 07:24:35;;;;;;;;;;;;;;;;;;6289121;22;20236;-92
2022/08/02 07:29:50;;;;;;;;;;;;;;;;;;6215785;22;19925;-90
2022/08/02 07:32:26;;;;;;;;;;;;;;;;;;;;;
2022/08/02 07:34:52;;;;;;;;;;;;;;;;;;6286859;22;19915;-91
2022/08/02 07:37:24;;;;;;;;;;;;;;;;;;6231878;22;19918;-91
2022/08/02 07:40:00;;;;;;;;;;;;;;;;;;;;;
2022/08/02 07:42:53;;;;;;;;;;;;;;;;;;6287621;22;19914;-90
2022/08/02 07:45:22;;;;;;;;;;;;;;;;;;6261131;22;19915;-91
2022/08/02 07:47:48;;;;;;;;;;;;;;;;;;6236564;22;19933;-90
2022/08/02 07:53:13;;;;;;;;;;;;;;;;;;;;;
2022/08/02 08:01:50;;;;;;;;;;;;;;;;;;;;;
2022/08/02 08:04:26;;;;;;;;;;;;;;;;;;6263219;22;19922;-92
2022/08/02 08:07:11;;;;;;;;;;;;;;;;;;;;;
2022/08/02 08:09:41;;;;;;;;;;;;;;;;;;6291007;22;19914;-91
2022/08/02 08:12:20;;;;;;;;;;;;;;;;;;6262479;22;19915;-91
2022/08/02 08:15:04;;;;;;;;;;;;;;;;;;6260614;22;19922;-91
2022/08/02 08:17:33;;;;;;;;;;;;;;;;;;6237544;22;19926;-91
2022/08/02 08:20:24;;;;;;;;;;;;;;;;;;6234293;22;19922;-92
2022/08/02 08:22:51;;;;;;;;;;;;;;;;;;6259119;22;19915;-91
2022/08/02 08:25:25;;;;;;;;;;;;;;;;;;6262701;22;19923;-90
2022/08/02 08:27:51;;;;;;;;;;;;;;;;;;6237227;22;19914;-91
2022/08/02 08:30:25;;;;;;;;;;;;;;;;;;6239343;22;19914;-93
2022/08/02 08:35:49;;;;;;;;;;;;;;;;;;6251721;22;20387;-92
2022/08/02 08:38:38;;;;;;;;;;;;;;;;;;6230337;22;19915;-92
2022/08/02 08:41:07;;;;;;;;;;;;;;;;;;6227128;22;20304;-91
2022/08/02 08:43:35;;;;;;;;;;;;;;;;;;6229995;22;19915;-92
2022/08/02 08:46:04;;;;;;;;;;;;;;;;;;6229424;22;19921;-92
2022/08/02 08:48:30;;;;;;;;;;;;;;;;;;6227512;22;19915;-90
2022/08/02 08:50:59;;;;;;;;;;;;;;;;;;6226111;22;19999;-91
2022/08/02 08:53:28;;;;;;;;;;;;;;;;;;6229177;22;20275;-90
2022/08/02 08:56:06;;;;;;;;;;;;;;;;;;6226218;22;19919;-91
2022/08/02 08:58:35;;;;;;;;;;;;;;;;;;6230806;22;19910;-92
2022/08/02 09:01:15;;;;;;;;;;;;;;;;;;6224106;22;19915;-91
2022/08/02 09:04:05;;;;;;;;;;;;;;;;;;6200280;22;19915;-90
2022/08/02 09:06:40;;;;;;;;;;;;;;;;;;6229011;22;19922;-91
2022/08/02 09:12:07;;;;;;;;;;;;;;;;;;6252239;22;19922;-91
2022/08/02 09:14:39;;;;;;;;;;;;;;;;;;6254382;22;19915;-91
2022/08/02 09:23:05;;;;;;;;;;;;;;;;;;6250201;22;19916;-93
2022/08/02 09:25:39;;;;;;;;;;;;;;;;;;6259540;22;20417;-91
2022/08/02 09:34:40;;;;;;;;;;;;;;;;;;6138453;23;19913;-91
2022/08/02 09:37:12;;;;;;;;;;;;;;;;;;6133352;23;19963;-92
2022/08/02 09:39:50;;;;;;;;;;;;;;;;;;6087927;23;19917;-92
2022/08/02 09:42:21;;;;;;;;;;;;;;;;;;6114449;23;19913;-92
2022/08/02 09:45:04;;;;;;;;;;;;;;;;;;6147287;22;20294;-92
2022/08/02 09:47:32;;;;;;;;;;;;;;;;;;6240948;22;19922;-92
2022/08/02 09:53:01;;;;;;;;;;;;;;;;;;6291729;22;19919;-91
2022/08/02 09:55:44;;;;;;;;;;;;;;;;;;;;;
2022/08/02 09:58:11;;;;;;;;;;;;;;;;;;6257826;22;19914;-92
2022/08/02 10:00:39;;;;;;;;;;;;;;;;;;6264760;22;19941;-92
2022/08/02 10:03:24;;;;;;;;;;;;;;;;;;;;;
2022/08/02 10:06:00;;;;;;;;;;;;;;;;;;6269836;22;19924;-90
2022/08/02 10:08:26;;;;;;;;;;;;;;;;;;6230582;22;19915;-89
2022/08/02 10:10:59;;;;;;;;;;;;;;;;;;6231618;22;19919;-89
2022/08/02 10:13:25;;;;;;;;;;;;;;;;;;6235104;22;19915;-90
2022/08/02 10:15:53;;;;;;;;;;;;;;;;;;6228983;22;19980;-90
2022/08/02 10:18:19;;;;;;;;;;;;;;;;;;6205353;22;19954;-90
2022/08/02 10:20:45;;;;;;;;;;;;;;;;;;6231098;22;19922;-90
2022/08/02 10:23:11;;;;;;;;;;;;;;;;;;6229251;22;20319;-90
2022/08/02 10:25:37;;;;;;;;;;;;;;;;;;6232092;22;19918;-90
2022/08/02 10:28:03;;;;;;;;;;;;;;;;;;6230620;22;19965;-90
2022/08/02 10:30:29;;;;;;;;;;;;;;;;;;6231216;22;19969;-90
2022/08/02 10:32:55;;;;;;;;;;;;;;;;;;6232576;22;19915;-90
2022/08/02 10:35:21;;;;;;;;;;;;;;;;;;6232771;22;19915;-90
2022/08/02 10:37:47;;;;;;;;;;;;;;;;;;6230505;22;19930;-90
2022/08/02 10:40:22;;;;;;;;;;;;;;;;;;6228935;22;19917;-90
2022/08/02 10:42:48;;;;;;;;;;;;;;;;;;6233654;22;19918;-91
2022/08/02 10:45:14;;;;;;;;;;;;;;;;;;6228469;22;19915;-90
2022/08/02 10:47:40;;;;;;;;;;;;;;;;;;6231223;22;20193;-90
2022/08/02 10:50:06;;;;;;;;;;;;;;;;;;6230057;22;19915;-89
2022/08/02 10:52:32;;;;;;;;;;;;;;;;;;6234196;22;19922;-90
2022/08/02 10:54:58;;;;;;;;;;;;;;;;;;6229013;22;19915;-90
2022/08/02 10:57:24;;;;;;;;;;;;;;;;;;6231903;22;19918;-90
2022/08/02 10:59:50;;;;;;;;;;;;;;;;;;6229026;22;19922;-91
2022/08/02 11:02:16;;;;;;;;;;;;;;;;;;6256489;22;19915;-88
2022/08/02 11:04:45;;;;;;;;;;;;;;;;;;6231595;22;20403;-89
2022/08/02 11:07:13;;;;;;;;;;;;;;;;;;6258976;22;20662;-90
2022/08/02 11:09:39;;;;;;;;;;;;;;;;;;6265196;22;19923;-91
2022/08/02 11:12:05;;;;;;;;;;;;;;;;;;6240066;22;19915;-90
2022/08/02 11:14:30;;;;;;;;;;;;;;;;;;6293710;22;19914;-91
2022/08/02 11:16:56;;;;;;;;;;;;;;;;;;6237556;22;20304;-92
2022/08/02 11:19:22;;;;;;;;;;;;;;;;;;6267533;22;19915;-90
2022/08/02 11:21:48;;;;;;;;;;;;;;;;;;6291936;22;20132;-92
2022/08/02 11:24:14;;;;;;;;;;;;;;;;;;6237930;22;19914;-90
2022/08/02 11:26:40;;;;;;;;;;;;;;;;;;6287839;22;19922;-90
2022/08/02 11:29:06;;;;;;;;;;;;;;;;;;6265772;22;20316;-91
2022/08/02 11:31:32;;;;;;;;;;;;;;;;;;6267685;22;19914;-91
2022/08/02 11:33:58;;;;;;;;;;;;;;;;;;6263070;22;19942;-90
2022/08/02 11:36:24;;;;;;;;;;;;;;;;;;6287532;22;19957;-91
2022/08/02 11:38:50;;;;;;;;;;;;;;;;;;6264295;22;19937;-91
2022/08/02 11:41:16;;;;;;;;;;;;;;;;;;6260777;22;19919;-90
2022/08/02 11:43:42;;;;;;;;;;;;;;;;;;6263849;22;19926;-90
2022/08/02 11:46:08;;;;;;;;;;;;;;;;;;6263006;22;20684;-90
2022/08/02 11:48:34;;;;;;;;;;;;;;;;;;6269315;22;19914;-91
2022/08/02 11:51:00;;;;;;;;;;;;;;;;;;6268408;22;19910;-91
2022/08/02 11:53:26;;;;;;;;;;;;;;;;;;6273766;22;20243;-90
2022/08/02 11:55:53;;;;;;;;;;;;;;;;;;6273094;22;19923;-91
2022/08/02 11:58:19;;;;;;;;;;;;;;;;;;6295873;22;19923;-91
2022/08/02 12:00:45;;;;;;;;;;;;;;;;;;6269688;22;20009;-91
2022/08/02 12:03:11;;;;;;;;;;;;;;;;;;6268928;22;19918;-92
2022/08/02 12:05:37;;;;;;;;;;;;;;;;;;6270845;22;19914;-91
2022/08/02 12:08:03;;;;;;;;;;;;;;;;;;6243970;22;19911;-90
2022/08/02 12:10:29;;;;;;;;;;;;;;;;;;6298116;22;19918;-91
2022/08/02 12:12:57;;;;;;;;;;;;;;;;;;6244637;22;19921;-91
2022/08/02 12:15:23;;;;;;;;;;;;;;;;;;6245449;22;19911;-91
2022/08/02 12:20:34;;;;;;;;;;;;;;;;;;6266298;22;19915;-90
2022/08/02 12:23:00;;;;;;;;;;;;;;;;;;6241942;22;19914;-91
2022/08/02 12:25:26;;;;;;;;;;;;;;;;;;6245809;22;19917;-90
2022/08/02 12:27:53;;;;;;;;;;;;;;;;;;6243227;22;19961;-91
2022/08/02 12:30:19;;;;;;;;;;;;;;;;;;6242991;22;19918;-90
2022/08/02 12:32:44;;;;;;;;;;;;;;;;;;6242935;22;19921;-90
2022/08/02 12:35:10;;;;;;;;;;;;;;;;;;6243018;22;19993;-90
2022/08/02 12:37:36;;;;;;;;;;;;;;;;;;6268626;22;19914;-91
2022/08/02 12:40:02;;;;;;;;;;;;;;;;;;6267554;22;19929;-91
2022/08/02 12:42:28;;;;;;;;;;;;;;;;;;6267004;22;20327;-91
2022/08/02 12:44:57;;;;;;;;;;;;;;;;;;6242257;22;20239;-90
2022/08/02 12:47:23;;;;;;;;;;;;;;;;;;6246906;22;19911;-90
2022/08/02 12:49:50;;;;;;;;;;;;;;;;;;6276689;22;19964;-90
2022/08/02 12:52:16;;;;;;;;;;;;;;;;;;6274191;22;20415;-91
2022/08/02 12:54:42;;;;;;;;;;;;;;;;;;6243638;22;20617;-91
2022/08/02 12:57:08;;;;;;;;;;;;;;;;;;6262603;22;20362;-91
2022/08/02 12:59:34;;;;;;;;;;;;;;;;;;6240675;22;19922;-91
2022/08/02 13:02:00;;;;;;;;;;;;;;;;;;6264712;22;19921;-91
2022/08/02 13:04:26;;;;;;;;;;;;;;;;;;6293562;22;19915;-91
2022/08/02 13:06:52;;;;;;;;;;;;;;;;;;6240695;22;20470;-90
2022/08/02 13:09:18;;;;;;;;;;;;;;;;;;6291100;22;19915;-90
2022/08/02 13:11:44;;;;;;;;;;;;;;;;;;6267565;22;19911;-90
2022/08/02 13:14:10;;;;;;;;;;;;;;;;;;6239887;22;19926;-91
2022/08/02 13:16:36;;;;;;;;;;;;;;;;;;6242723;22;19926;-91
2022/08/02 13:19:02;;;;;;;;;;;;;;;;;;6264353;22;19915;-91
2022/08/02 13:21:28;;;;;;;;;;;;;;;;;;6295638;22;19910;-91
2022/08/02 13:23:54;;;;;;;;;;;;;;;;;;6264530;22;20039;-90
2022/08/02 13:26:20;;;;;;;;;;;;;;;;;;6292280;22;19918;-91
2022/08/02 13:28:46;;;;;;;;;;;;;;;;;;6268087;22;19986;-91
2022/08/02 13:31:12;;;;;;;;;;;;;;;;;;6240540;22;20380;-91
2022/08/02 13:33:38;;;;;;;;;;;;;;;;;;6240803;22;19921;-90
2022/08/02 13:36:04;;;;;;;;;;;;;;;;;;6262174;22;19914;-90
2022/08/02 13:38:30;;;;;;;;;;;;;;;;;;6243174;22;19910;-90
2022/08/02 13:41:08;;;;;;;;;;;;;;;;;;6260917;22;19915;-90
2022/08/02 13:43:34;;;;;;;;;;;;;;;;;;6261430;22;20005;-90
2022/08/02 13:46:00;;;;;;;;;;;;;;;;;;6234272;22;20349;-91
2022/08/02 13:48:27;;;;;;;;;;;;;;;;;;6239092;22;19982;-90
2022/08/02 13:50:53;;;;;;;;;;;;;;;;;;6266436;22;19915;-90
2022/08/02 13:53:19;;;;;;;;;;;;;;;;;;6237150;22;19914;-90
2022/08/02 13:55:45;;;;;;;;;;;;;;;;;;6242122;22;19950;-89
2022/08/02 13:58:11;;;;;;;;;;;;;;;;;;6239989;22;19964;-90
2022/08/02 14:00:37;;;;;;;;;;;;;;;;;;6242479;22;20433;-89
2022/08/02 14:03:03;;;;;;;;;;;;;;;;;;6237437;22;19915;-90
2022/08/02 14:05:30;;;;;;;;;;;;;;;;;;6231708;22;20332;-90
2022/08/02 14:08:00;;;;;;;;;;;;;;;;;;6260250;22;19965;-90
2022/08/02 14:10:25;;;;;;;;;;;;;;;;;;6239477;22;19914;-89
2022/08/02 14:12:51;;;;;;;;;;;;;;;;;;6264138;22;20315;-90
2022/08/02 14:15:17;;;;;;;;;;;;;;;;;;6237785;22;19915;-90
2022/08/02 14:17:43;;;;;;;;;;;;;;;;;;6260359;22;19944;-89
2022/08/02 14:20:10;;;;;;;;;;;;;;;;;;6234594;22;19926;-89
2022/08/02 14:22:36;;;;;;;;;;;;;;;;;;6263112;22;20333;-89
2022/08/02 14:25:04;;;;;;;;;;;;;;;;;;6260478;22;19921;-89
2022/08/02 14:27:33;;;;;;;;;;;;;;;;;;6264323;22;19961;-90
2022/08/02 14:29:59;;;;;;;;;;;;;;;;;;6235533;22;19940;-90
2022/08/02 14:32:25;;;;;;;;;;;;;;;;;;6237655;22;19915;-90
2022/08/02 14:34:51;;;;;;;;;;;;;;;;;;6239962;22;19934;-91
2022/08/02 14:37:17;;;;;;;;;;;;;;;;;;6236118;22;20295;-87
2022/08/02 14:39:46;;;;;;;;;;;;;;;;;;6291975;22;19957;-90
2022/08/02 14:42:12;;;;;;;;;;;;;;;;;;6238901;22;19918;-90
2022/08/02 14:44:38;;;;;;;;;;;;;;;;;;6237641;22;19914;-89
2022/08/02 14:47:04;;;;;;;;;;;;;;;;;;6235018;22;19922;-89
2022/08/02 14:49:30;;;;;;;;;;;;;;;;;;6240510;22;19976;-90
2022/08/02 14:51:56;;;;;;;;;;;;;;;;;;6237704;22;19968;-89
2022/08/02 14:54:24;;;;;;;;;;;;;;;;;;6238604;22;20140;-90
2022/08/02 14:56:53;;;;;;;;;;;;;;;;;;6235041;22;19925;-90
2022/08/02 14:59:19;;;;;;;;;;;;;;;;;;6234574;22;19925;-90
2022/08/02 15:01:45;;;;;;;;;;;;;;;;;;6238187;22;20247;-89
2022/08/02 15:04:11;;;;;;;;;;;;;;;;;;6232258;22;19923;-89
2022/08/02 15:06:37;;;;;;;;;;;;;;;;;;6237468;22;19914;-90
2022/08/02 15:09:03;;;;;;;;;;;;;;;;;;6287651;22;19985;-90
2022/08/02 15:11:32;;;;;;;;;;;;;;;;;;6238948;22;19985;-90
2022/08/02 15:13:58;;;;;;;;;;;;;;;;;;6235197;22;19914;-90
2022/08/02 15:16:24;;;;;;;;;;;;;;;;;;6236227;22;20732;-90
2022/08/02 15:18:50;;;;;;;;;;;;;;;;;;6236083;22;19923;-89
2022/08/02 15:21:16;;;;;;;;;;;;;;;;;;6236184;22;19914;-90
2022/08/02 15:23:45;;;;;;;;;;;;;;;;;;6239216;22;19925;-90
2022/08/02 15:26:11;;;;;;;;;;;;;;;;;;6236102;22;19914;-90
2022/08/02 15:28:40;;;;;;;;;;;;;;;;;;6238315;22;20360;-89
2022/08/02 15:31:06;;;;;;;;;;;;;;;;;;6236694;22;19915;-90
2022/08/02 15:33:32;;;;;;;;;;;;;;;;;;6238641;22;19938;-90
2022/08/02 15:36:01;;;;;;;;;;;;;;;;;;6237256;22;19915;-90
2022/08/02 15:38:27;;;;;;;;;;;;;;;;;;6237388;22;19918;-91
2022/08/02 15:40:53;;;;;;;;;;;;;;;;;;6240943;22;19918;-90
2022/08/02 15:43:20;;;;;;;;;;;;;;;;;;6238628;22;19914;-90
2022/08/02 15:45:46;;;;;;;;;;;;;;;;;;6241006;22;19919;-90
2022/08/02 15:48:12;;;;;;;;;;;;;;;;;;6236872;22;19939;-90
2022/08/02 15:50:44;;;;;;;;;;;;;;;;;;6242379;22;19968;-91
2022/08/02 15:53:10;;;;;;;;;;;;;;;;;;6238110;22;19918;-90
2022/08/02 15:55:37;;;;;;;;;;;;;;;;;;6242462;22;19937;-90
2022/08/02 15:58:03;;;;;;;;;;;;;;;;;;6238342;22;20006;-90
2022/08/02 16:00:29;;;;;;;;;;;;;;;;;;6239644;22;19951;-89
2022/08/02 16:02:58;;;;;;;;;;;;;;;;;;6266668;22;19982;-89
2022/08/02 16:05:24;;;;;;;;;;;;;;;;;;6239292;22;20239;-89
2022/08/02 16:10:45;;;;;;;;;;;;;;;;;;6256010;22;20099;-89
2022/08/02 16:15:56;;;;;;;;;;;;;;;;;;6266954;22;20006;-89
2022/08/02 16:18:22;;;;;;;;;;;;;;;;;;6239853;22;19921;-89
2022/08/02 16:20:48;;;;;;;;;;;;;;;;;;6240092;22;19954;-89
2022/08/02 16:23:14;;;;;;;;;;;;;;;;;;6236872;22;19915;-89
2022/08/02 16:25:40;;;;;;;;;;;;;;;;;;6269641;22;19938;-89
2022/08/02 16:28:09;;;;;;;;;;;;;;;;;;6267847;22;19911;-89
2022/08/02 16:30:35;;;;;;;;;;;;;;;;;;6241838;22;19915;-90
2022/08/02 16:33:01;;;;;;;;;;;;;;;;;;6240824;22;20292;-90
2022/08/02 16:35:27;;;;;;;;;;;;;;;;;;6240431;22;20202;-89
2022/08/02 16:37:53;;;;;;;;;;;;;;;;;;6241777;22;19919;-90
2022/08/02 16:40:19;;;;;;;;;;;;;;;;;;6237850;22;20280;-90
2022/08/02 16:42:46;;;;;;;;;;;;;;;;;;6263842;22;19993;-90
2022/08/02 16:45:12;;;;;;;;;;;;;;;;;;6235518;22;19950;-90
2022/08/02 16:47:38;;;;;;;;;;;;;;;;;;6241003;22;19919;-90
2022/08/02 16:50:04;;;;;;;;;;;;;;;;;;6236592;22;20185;-89
2022/08/02 16:52:30;;;;;;;;;;;;;;;;;;6238108;22;19952;-91
2022/08/02 16:54:56;;;;;;;;;;;;;;;;;;6242271;22;19911;-89
2022/08/02 16:57:22;;;;;;;;;;;;;;;;;;6238355;22;19934;-90
2022/08/02 16:59:48;;;;;;;;;;;;;;;;;;6263097;22;20187;-90
2022/08/02 17:02:14;;;;;;;;;;;;;;;;;;6260241;22;19914;-90
2022/08/02 17:04:40;;;;;;;;;;;;;;;;;;6265470;22;19917;-89
2022/08/02 17:07:06;;;;;;;;;;;;;;;;;;6237377;22;19915;-90
2022/08/02 17:09:32;;;;;;;;;;;;;;;;;;6237098;22;19946;-90
2022/08/02 17:14:57;;;;;;;;;;;;;;;;;;6284618;22;20343;-89
2022/08/02 17:17:23;;;;;;;;;;;;;;;;;;6236252;22;20458;-90
2022/08/02 17:26:08;;;;;;;;;;;;;;;;;;6109526;23;20524;-90
2022/08/02 17:28:34;;;;;;;;;;;;;;;;;;6224552;22;19918;-90
2022/08/02 17:31:13;;;;;;;;;;;;;;;;;;6259420;22;19957;-90
2022/08/02 17:34:18;;;;;;;;;;;;;;;;;;;;;
2022/08/02 17:37:15;;;;;;;;;;;;;;;;;;6115282;23;19924;-90
2022/08/02 17:39:41;;;;;;;;;;;;;;;;;;6166183;23;19912;-90
2022/08/02 17:42:07;;;;;;;;;;;;;;;;;;6143169;23;19923;-92
2022/08/02 17:44:34;;;;;;;;;;;;;;;;;;6180186;22;19916;-91
2022/08/02 17:53:28;;;;;;;;;;;;;;;;;;6207429;23;19915;-90
2022/08/02 18:21:27;;;;;;;;;;;;;;;;;;6327159;22;19930;-90
2022/08/02 18:23:53;;;;;;;;;;;;;;;;;;6297466;22;19910;-90
2022/08/02 18:26:19;;;;;;;;;;;;;;;;;;6293499;22;19914;-90
2022/08/02 18:28:45;;;;;;;;;;;;;;;;;;6296258;22;20495;-90
2022/08/02 18:31:12;;;;;;;;;;;;;;;;;;6289985;22;19914;-91
2022/08/02 18:33:38;;;;;;;;;;;;;;;;;;6320237;22;19921;-90
2022/08/02 18:36:04;;;;;;;;;;;;;;;;;;6292318;22;20251;-92
2022/08/02 18:38:30;;;;;;;;;;;;;;;;;;6294754;22;19914;-92
2022/08/02 18:40:59;;;;;;;;;;;;;;;;;;6290965;22;19914;-91
2022/08/02 18:43:25;;;;;;;;;;;;;;;;;;6294302;22;19937;-90
2022/08/02 18:45:51;;;;;;;;;;;;;;;;;;6295894;22;20605;-90
2022/08/02 18:48:17;;;;;;;;;;;;;;;;;;6294400;22;19949;-91
2022/08/02 18:50:43;;;;;;;;;;;;;;;;;;6295695;22;19914;-90
2022/08/02 18:53:09;;;;;;;;;;;;;;;;;;6289663;22;20335;-90
2022/08/02 18:55:35;;;;;;;;;;;;;;;;;;6294070;22;19964;-91
2022/08/02 18:58:01;;;;;;;;;;;;;;;;;;6294587;22;19914;-91
2022/08/02 19:00:27;;;;;;;;;;;;;;;;;;6297271;22;20855;-91
2022/08/02 19:02:53;;;;;;;;;;;;;;;;;;6293704;22;19918;-90
2022/08/02 19:05:19;;;;;;;;;;;;;;;;;;6293923;22;19910;-90
2022/08/02 19:07:45;;;;;;;;;;;;;;;;;;6350744;22;19921;-90
2022/08/02 19:10:11;;;;;;;;;;;;;;;;;;6324271;22;20003;-90
2022/08/02 19:12:37;;;;;;;;;;;;;;;;;;6329882;22;19956;-90
2022/08/02 19:15:03;;;;;;;;;;;;;;;;;;6355050;22;19913;-90
2022/08/02 19:17:29;;;;;;;;;;;;;;;;;;6330317;22;19918;-88
2022/08/02 19:19:55;;;;;;;;;;;;;;;;;;6320219;22;19922;-90
2022/08/02 19:22:21;;;;;;;;;;;;;;;;;;6292928;22;20371;-88
2022/08/02 19:24:50;;;;;;;;;;;;;;;;;;6317961;22;19915;-88
2022/08/02 19:27:16;;;;;;;;;;;;;;;;;;6285535;22;20106;-88
2022/08/02 19:29:42;;;;;;;;;;;;;;;;;;6291364;22;19914;-88
2022/08/02 19:32:08;;;;;;;;;;;;;;;;;;6285188;22;19937;-88
2022/08/02 19:34:34;;;;;;;;;;;;;;;;;;6286080;22;19929;-89
2022/08/02 19:42:51;;;;;;;;;;;;;;;;;;6253648;22;20001;-82
2022/08/02 19:52:03;;;;;;;;;;;;;;;;;;;;;
2022/08/02 19:58:02;;;;;;;;;;;;;;;;;;6095898;23;19943;-83
2022/08/02 20:03:42;;;;;;;;;;;;;;;;;;;;;
2022/08/02 20:06:40;;;;;;;;;;;;;;;;;;6111916;23;20491;-83
2022/08/02 20:09:31;;;;;;;;;;;;;;;;;;;;;
2022/08/02 20:12:36;;;;;;;;;;;;;;;;;;6173339;23;19983;-82
2022/08/02 20:15:07;;;;;;;;;;;;;;;;;;6136030;23;19924;-82
2022/08/02 20:24:08;;;;;;;;;;;;;;;;;;;;;
2022/08/02 20:26:53;;;;;;;;;;;;;;;;;;;;;
2022/08/02 20:30:26;;;;;;;;;;;;;;;;;;6046667;23;20020;-83
2022/08/02 20:36:01;;;;;;;;;;;;;;;;;;6144043;23;19916;-84
2022/08/02 20:41:59;;;;;;;;;;;;;;;;;;6113222;23;20346;-83
2022/08/02 20:44:28;;;;;;;;;;;;;;;;;;6056703;23;19924;-82
2022/08/02 20:52:47;;;;;;;;;;;;;;;;;;6109069;23;19920;-82
2022/08/02 20:55:38;;;;;;;;;;;;;;;;;;6111611;23;19916;-82
2022/08/02 20:58:22;;;;;;;;;;;;;;;;;;6083830;23;19999;-82
2022/08/02 21:01:08;;;;;;;;;;;;;;;;;;;;;
2022/08/02 21:03:51;;;;;;;;;;;;;;;;;;6161118;23;19923;-82
2022/08/02 21:06:46;;;;;;;;;;;;;;;;;;6164505;23;19912;-81
2022/08/02 21:09:39;;;;;;;;;;;;;;;;;;;;;
2022/08/02 21:12:14;;;;;;;;;;;;;;;;;;6151391;23;20496;-82
2022/08/02 21:14:48;;;;;;;;;;;;;;;;;;6172389;23;19920;-82
2022/08/02 21:20:20;;;;;;;;;;;;;;;;;;6256644;22;19919;-82
2022/08/02 21:23:10;;;;;;;;;;;;;;;;;;6200699;23;19911;-82
2022/08/02 21:25:51;;;;;;;;;;;;;;;;;;6216765;23;19986;-82
2022/08/02 21:28:30;;;;;;;;;;;;;;;;;;;;;
2022/08/02 21:30:59;;;;;;;;;;;;;;;;;;6222744;23;20418;-82
2022/08/02 21:33:26;;;;;;;;;;;;;;;;;;6198058;23;19915;-82
2022/08/02 21:38:56;;;;;;;;;;;;;;;;;;6251043;22;19997;-90
2022/08/02 21:41:22;;;;;;;;;;;;;;;;;;6294727;22;20224;-89
2022/08/02 21:43:48;;;;;;;;;;;;;;;;;;6296949;22;19921;-90
2022/08/02 21:46:14;;;;;;;;;;;;;;;;;;6267503;22;20604;-90
2022/08/02 21:48:41;;;;;;;;;;;;;;;;;;6268195;22;20246;-90
2022/08/02 21:51:07;;;;;;;;;;;;;;;;;;6295138;22;19914;-89
2022/08/02 21:53:34;;;;;;;;;;;;;;;;;;6325545;22;19914;-90
2022/08/02 21:56:06;;;;;;;;;;;;;;;;;;6295560;22;19914;-89
2022/08/02 21:58:33;;;;;;;;;;;;;;;;;;6327325;22;19985;-89
2022/08/02 22:00:59;;;;;;;;;;;;;;;;;;6298716;22;19977;-89
2022/08/02 22:03:27;;;;;;;;;;;;;;;;;;6273285;22;20339;-90
2022/08/02 22:05:53;;;;;;;;;;;;;;;;;;6290170;22;19915;-90
2022/08/02 22:08:20;;;;;;;;;;;;;;;;;;6291422;22;19918;-89
2022/08/02 22:11:02;;;;;;;;;;;;;;;;;;6295928;22;20324;-89
2022/08/02 22:13:27;;;;;;;;;;;;;;;;;;6266327;22;19915;-88
2022/08/02 22:15:56;;;;;;;;;;;;;;;;;;6292089;22;19915;-89
2022/08/02 22:18:22;;;;;;;;;;;;;;;;;;6238972;22;19930;-90
2022/08/02 22:20:48;;;;;;;;;;;;;;;;;;6290128;22;19964;-90